Time;durP1;ratioP1;P1;durP2;ratioP2;P2;SDS_P1;SDS_P2;PMS_P1;PMS_P2;Temp;Humidity;BMP_temperature;BMP_pressure;BME280_temperature;BME280_humidity;BME280_pressure;Samples;Min_cycle;Max_cycle;Signal;HPM_P1;HPM_P2
2023/06/16 00:01:35;;;;;;;3.97;3.58;;;;;;;;;;5094771;28;20157;-35
2023/06/16 00:04:03;;;;;;;6.55;4.57;;;;;;;;;;5094350;28;20066;-32
2023/06/16 00:06:29;;;;;;;4.03;3.72;;;;;;;;;;5095936;28;20103;-29
2023/06/16 00:08:56;;;;;;;3.70;3.40;;;;;;;;;;5101410;28;20024;-31
2023/06/16 00:11:22;;;;;;;5.22;3.17;;;;;;;;;;5101433;28;20031;-29
2023/06/16 00:13:50;;;;;;;3.67;3.40;;;;;;;;;;5101306;28;20039;-31
2023/06/16 00:16:19;;;;;;;3.95;3.75;;;;;;;;;;5101661;28;20109;-29
2023/06/16 00:18:46;;;;;;;3.58;3.38;;;;;;;;;;5101867;28;20206;-30
2023/06/16 00:21:19;;;;;;;3.75;3.47;;;;;;;;;;5101330;28;20028;-30
2023/06/16 00:23:46;;;;;;;3.78;3.47;;;;;;;;;;5101398;28;20036;-31
2023/06/16 00:26:12;;;;;;;3.60;3.30;;;;;;;;;;5101581;28;20020;-31
2023/06/16 00:28:40;;;;;;;3.42;3.15;;;;;;;;;;5101266;28;20024;-30
2023/06/16 00:31:07;;;;;;;3.33;3.13;;;;;;;;;;5101442;28;20454;-30
2023/06/16 00:33:33;;;;;;;4.18;3.42;;;;;;;;;;5101174;28;20059;-29
2023/06/16 00:35:59;;;;;;;3.35;3.15;;;;;;;;;;5101190;28;20402;-30
2023/06/16 00:38:25;;;;;;;4.25;3.88;;;;;;;;;;5101636;28;20439;-30
2023/06/16 00:40:51;;;;;;;3.30;3.10;;;;;;;;;;5101458;28;20074;-29
2023/06/16 00:43:17;;;;;;;2.70;2.50;;;;;;;;;;5101006;28;20024;-28
2023/06/16 00:45:44;;;;;;;4.20;3.65;;;;;;;;;;5083321;28;20340;-28
2023/06/16 00:48:10;;;;;;;3.55;3.25;;;;;;;;;;5101386;28;20340;-30
2023/06/16 00:50:37;;;;;;;4.10;3.80;;;;;;;;;;5101087;28;20024;-28
2023/06/16 00:53:03;;;;;;;3.92;3.63;;;;;;;;;;5101212;28;20039;-28
2023/06/16 00:55:30;;;;;;;3.47;3.25;;;;;;;;;;5101305;28;20439;-29
2023/06/16 00:57:56;;;;;;;3.53;3.33;;;;;;;;;;5100999;28;20035;-28
2023/06/16 01:00:22;;;;;;;3.15;2.95;;;;;;;;;;5101271;28;20061;-32
2023/06/16 01:02:50;;;;;;;4.15;3.85;;;;;;;;;;5100800;28;20446;-29
2023/06/16 01:05:17;;;;;;;3.22;3.03;;;;;;;;;;5100743;28;20044;-27
2023/06/16 01:07:59;;;;;;;3.28;3.05;;;;;;;;;;5100834;28;20028;-27
2023/06/16 01:10:28;;;;;;;4.30;3.95;;;;;;;;;;5101092;28;20028;-30
2023/06/16 01:13:00;;;;;;;3.65;3.40;;;;;;;;;;5100790;28;20097;-29
2023/06/16 01:15:28;;;;;;;3.13;2.92;;;;;;;;;;5100858;28;20028;-29
2023/06/16 01:17:56;;;;;;;3.55;3.35;;;;;;;;;;5099943;28;20490;-28
2023/06/16 01:20:28;;;;;;;3.72;3.42;;;;;;;;;;5097046;28;20461;-27
2023/06/16 01:23:16;;;;;;;3.40;3.20;;;;;;;;;;5097470;28;20098;-31
2023/06/16 01:25:43;;;;;;;4.05;3.65;;;;;;;;;;5097776;28;20016;-27
2023/06/16 01:28:10;;;;;;;3.80;3.50;;;;;;;;;;5097675;28;20081;-30
2023/06/16 01:30:42;;;;;;;3.80;3.55;;;;;;;;;;5097377;28;20020;-29
2023/06/16 01:33:10;;;;;;;3.33;3.05;;;;;;;;;;5097583;28;20363;-30
2023/06/16 01:35:36;;;;;;;3.70;3.45;;;;;;;;;;5097307;28;20024;-31
2023/06/16 01:38:02;;;;;;;3.40;3.20;;;;;;;;;;5097559;28;20032;-30
2023/06/16 01:40:30;;;;;;;3.30;3.05;;;;;;;;;;5097264;28;20121;-31
2023/06/16 01:42:57;;;;;;;3.80;3.53;;;;;;;;;;5097290;28;20446;-30
2023/06/16 01:45:23;;;;;;;2.88;2.70;;;;;;;;;;5097148;28;20035;-28
2023/06/16 01:47:50;;;;;;;3.60;3.30;;;;;;;;;;5097677;28;20024;-30
2023/06/16 01:50:16;;;;;;;3.70;3.50;;;;;;;;;;5096970;28;20081;-28
2023/06/16 01:52:42;;;;;;;2.95;2.75;;;;;;;;;;5096940;28;20036;-30
2023/06/16 01:55:08;;;;;;;3.78;3.58;;;;;;;;;;5097206;28;20020;-34
2023/06/16 01:57:35;;;;;;;3.38;3.17;;;;;;;;;;5096870;28;20028;-31
2023/06/16 02:00:11;;;;;;;4.25;3.85;;;;;;;;;;5097068;28;20403;-31
2023/06/16 02:02:38;;;;;;;3.78;3.47;;;;;;;;;;5096663;28;20359;-32
2023/06/16 02:05:05;;;;;;;3.58;3.33;;;;;;;;;;5096634;28;20050;-29
2023/06/16 02:07:35;;;;;;;3.53;2.92;;;;;;;;;;5096651;28;20047;-31
2023/06/16 02:10:03;;;;;;;2.88;2.67;;;;;;;;;;5096952;28;20020;-28
2023/06/16 02:12:30;;;;;;;3.22;3.03;;;;;;;;;;5096779;28;20020;-31
2023/06/16 02:14:56;;;;;;;4.05;3.25;;;;;;;;;;5096503;28;20024;-32
2023/06/16 02:17:26;;;;;;;3.67;3.38;;;;;;;;;;5096526;28;20028;-30
2023/06/16 02:19:54;;;;;;;3.72;3.50;;;;;;;;;;5096499;28;20067;-30
2023/06/16 02:22:21;;;;;;;5.10;4.60;;;;;;;;;;5096298;28;20032;-28
2023/06/16 02:24:48;;;;;;;3.92;3.65;;;;;;;;;;5096665;28;20034;-34
2023/06/16 02:27:14;;;;;;;3.22;3.03;;;;;;;;;;5096939;28;20016;-26
2023/06/16 02:29:41;;;;;;;3.55;3.35;;;;;;;;;;5096149;28;20104;-27
2023/06/16 02:32:07;;;;;;;3.55;3.25;;;;;;;;;;5096205;28;20031;-27
2023/06/16 02:34:33;;;;;;;3.78;3.47;;;;;;;;;;5096521;28;20376;-29
2023/06/16 02:37:00;;;;;;;3.47;3.17;;;;;;;;;;5096192;28;20439;-30
2023/06/16 02:39:27;;;;;;;3.17;2.97;;;;;;;;;;5096140;28;20090;-28
2023/06/16 02:41:53;;;;;;;4.45;3.90;;;;;;;;;;5096264;28;20120;-28
2023/06/16 02:44:19;;;;;;;3.22;3.03;;;;;;;;;;5095962;28;20028;-29
2023/06/16 02:46:45;;;;;;;3.30;3.10;;;;;;;;;;5095929;28;20085;-30
2023/06/16 02:49:12;;;;;;;3.47;3.17;;;;;;;;;;5096229;28;20048;-32
2023/06/16 02:51:38;;;;;;;3.83;3.53;;;;;;;;;;5096157;28;20024;-33
2023/06/16 02:54:04;;;;;;;3.75;3.45;;;;;;;;;;5095792;28;20028;-30
2023/06/16 02:56:30;;;;;;;3.90;3.60;;;;;;;;;;5096036;28;20028;-27
2023/06/16 02:58:57;;;;;;;3.67;3.47;;;;;;;;;;5095992;28;20351;-26
2023/06/16 03:01:24;;;;;;;3.65;3.35;;;;;;;;;;5077913;28;20035;-27
2023/06/16 03:03:52;;;;;;;2.85;2.65;;;;;;;;;;5077468;28;20467;-28
2023/06/16 03:06:19;;;;;;;3.90;3.60;;;;;;;;;;5095644;28;20031;-30
2023/06/16 03:08:46;;;;;;;3.38;3.17;;;;;;;;;;5095559;28;20056;-30
2023/06/16 03:11:12;;;;;;;3.70;3.45;;;;;;;;;;5095834;28;20022;-30
2023/06/16 03:13:38;;;;;;;3.05;2.85;;;;;;;;;;5095399;28;20032;-32
2023/06/16 03:16:05;;;;;;;3.35;3.10;;;;;;;;;;5095418;28;20023;-33
2023/06/16 03:18:31;;;;;;;3.30;3.10;;;;;;;;;;5095620;28;20032;-30
2023/06/16 03:20:58;;;;;;;3.63;3.22;;;;;;;;;;5095870;28;20343;-30
2023/06/16 03:23:24;;;;;;;3.10;2.90;;;;;;;;;;5095400;28;20107;-26
2023/06/16 03:25:50;;;;;;;3.80;3.53;;;;;;;;;;5095199;28;20104;-27
2023/06/16 03:28:17;;;;;;;3.65;3.45;;;;;;;;;;5095471;28;20016;-28
2023/06/16 03:30:44;;;;;;;3.63;3.42;;;;;;;;;;5095149;28;20031;-30
2023/06/16 03:33:10;;;;;;;3.42;3.10;;;;;;;;;;5095058;28;20054;-32
2023/06/16 03:35:36;;;;;;;5.20;3.47;;;;;;;;;;5095367;28;20024;-34
2023/06/16 03:38:02;;;;;;;3.75;3.30;;;;;;;;;;5094999;28;20098;-30
2023/06/16 03:40:29;;;;;;;4.00;3.22;;;;;;;;;;5095027;28;20074;-31
2023/06/16 03:42:55;;;;;;;3.75;2.85;;;;;;;;;;5094301;28;20028;-29
2023/06/16 03:45:21;;;;;;;3.13;2.92;;;;;;;;;;5094881;28;20031;-28
2023/06/16 03:47:47;;;;;;;3.80;2.97;;;;;;;;;;5095400;28;20020;-27
2023/06/16 03:50:13;;;;;;;3.67;3.47;;;;;;;;;;5094823;28;20016;-29
2023/06/16 03:52:39;;;;;;;3.25;3.08;;;;;;;;;;5094712;28;20098;-31
2023/06/16 03:55:05;;;;;;;2.95;2.72;;;;;;;;;;5095048;28;20360;-29
2023/06/16 03:57:32;;;;;;;4.25;3.08;;;;;;;;;;5094661;28;20447;-34
2023/06/16 03:59:58;;;;;;;3.53;3.33;;;;;;;;;;5094984;28;20401;-31
2023/06/16 04:02:24;;;;;;;3.35;3.15;;;;;;;;;;5094488;28;20135;-31
2023/06/16 04:04:51;;;;;;;4.95;4.60;;;;;;;;;;5094533;28;20391;-29
2023/06/16 04:07:18;;;;;;;2.95;2.75;;;;;;;;;;5095141;28;20031;-30
2023/06/16 04:09:45;;;;;;;3.10;2.90;;;;;;;;;;5094542;28;20032;-31
2023/06/16 04:12:11;;;;;;;3.25;3.00;;;;;;;;;;5094475;28;20052;-31
2023/06/16 04:14:37;;;;;;;3.55;3.35;;;;;;;;;;5094491;28;20089;-29
2023/06/16 04:17:04;;;;;;;3.25;3.05;;;;;;;;;;5094954;28;20020;-30
2023/06/16 04:19:30;;;;;;;3.33;3.05;;;;;;;;;;5094632;28;20020;-27
2023/06/16 04:21:58;;;;;;;2.97;2.78;;;;;;;;;;5094328;28;20023;-33
2023/06/16 04:24:24;;;;;;;3.53;3.33;;;;;;;;;;5094910;28;20028;-31
2023/06/16 04:26:57;;;;;;;3.55;3.22;;;;;;;;;;5094874;28;20082;-27
2023/06/16 04:29:23;;;;;;;4.13;2.75;;;;;;;;;;5094650;28;20470;-33
2023/06/16 04:31:50;;;;;;;5.30;3.20;;;;;;;;;;5094773;28;20032;-29
2023/06/16 04:34:17;;;;;;;3.45;3.25;;;;;;;;;;5094638;28;20040;-30
2023/06/16 04:36:44;;;;;;;6.10;2.85;;;;;;;;;;5094131;28;20043;-32
2023/06/16 04:39:14;;;;;;;4.10;3.05;;;;;;;;;;5076384;28;20024;-28
2023/06/16 04:41:42;;;;;;;3.90;3.53;;;;;;;;;;5094152;28;20032;-29
2023/06/16 04:44:09;;;;;;;6.20;3.10;;;;;;;;;;5094277;28;20032;-32
2023/06/16 04:46:37;;;;;;;3.50;3.20;;;;;;;;;;5094639;28;20121;-32
2023/06/16 04:49:03;;;;;;;9.02;3.50;;;;;;;;;;5094132;28;20036;-30
2023/06/16 04:51:30;;;;;;;6.47;3.35;;;;;;;;;;5094360;28;20024;-31
2023/06/16 04:53:56;;;;;;;3.40;3.00;;;;;;;;;;5094927;28;20035;-34
2023/06/16 04:56:23;;;;;;;3.33;3.03;;;;;;;;;;5098246;28;20025;-30
2023/06/16 04:58:49;;;;;;;7.15;3.72;;;;;;;;;;5098040;28;20351;-30
2023/06/16 05:01:15;;;;;;;3.65;3.20;;;;;;;;;;5098102;28;20058;-30
2023/06/16 05:03:41;;;;;;;5.00;2.95;;;;;;;;;;5097612;28;20105;-27
2023/06/16 05:06:07;;;;;;;7.57;3.45;;;;;;;;;;5097698;28;20089;-28
2023/06/16 05:08:33;;;;;;;2.92;2.72;;;;;;;;;;5097721;28;20028;-30
2023/06/16 05:11:01;;;;;;;3.58;3.28;;;;;;;;;;5097773;28;20024;-33
2023/06/16 05:13:27;;;;;;;3.90;2.88;;;;;;;;;;5097553;28;20039;-29
2023/06/16 05:15:54;;;;;;;3.47;2.95;;;;;;;;;;5097795;28;20407;-37
2023/06/16 05:18:20;;;;;;;4.22;2.97;;;;;;;;;;5097844;28;20355;-30
2023/06/16 05:20:46;;;;;;;4.53;3.20;;;;;;;;;;5097524;28;20439;-30
2023/06/16 05:23:13;;;;;;;3.15;2.95;;;;;;;;;;5097609;28;20032;-30
2023/06/16 05:25:39;;;;;;;3.45;3.15;;;;;;;;;;5097539;28;20109;-33
2023/06/16 05:28:05;;;;;;;4.75;3.58;;;;;;;;;;5097640;28;20085;-33
2023/06/16 05:30:31;;;;;;;4.88;3.28;;;;;;;;;;5097299;28;20031;-31
2023/06/16 05:32:57;;;;;;;6.25;3.10;;;;;;;;;;5097441;28;20024;-30
2023/06/16 05:35:23;;;;;;;4.80;2.97;;;;;;;;;;5097357;28;20032;-31
2023/06/16 05:37:49;;;;;;;3.10;2.80;;;;;;;;;;5097270;28;20047;-33
2023/06/16 05:40:16;;;;;;;4.90;3.67;;;;;;;;;;5097157;28;20098;-31
2023/06/16 05:42:42;;;;;;;4.00;3.20;;;;;;;;;;5097305;28;20030;-30
2023/06/16 05:45:08;;;;;;;2.53;2.33;;;;;;;;;;5097351;28;20332;-34
2023/06/16 05:47:34;;;;;;;8.57;3.33;;;;;;;;;;5097110;28;20477;-29
2023/06/16 05:50:01;;;;;;;2.78;2.65;;;;;;;;;;5097026;28;20039;-31
2023/06/16 05:52:27;;;;;;;3.65;3.35;;;;;;;;;;5096844;28;20515;-29
2023/06/16 05:54:53;;;;;;;3.15;2.95;;;;;;;;;;5096948;28;20099;-33
2023/06/16 05:57:19;;;;;;;3.38;3.08;;;;;;;;;;5096837;28;20016;-29
2023/06/16 05:59:45;;;;;;;3.72;3.42;;;;;;;;;;5096745;28;20016;-29
2023/06/16 06:02:12;;;;;;;4.03;3.08;;;;;;;;;;5096500;28;20024;-33
2023/06/16 06:04:38;;;;;;;3.42;2.90;;;;;;;;;;5095988;28;20501;-31
2023/06/16 06:07:04;;;;;;;4.72;3.28;;;;;;;;;;5096690;28;20115;-30
2023/06/16 06:09:30;;;;;;;4.53;3.30;;;;;;;;;;5078842;28;20042;-31
2023/06/16 06:11:56;;;;;;;5.18;3.00;;;;;;;;;;5097084;28;20016;-29
2023/06/16 06:14:22;;;;;;;5.30;3.75;;;;;;;;;;5096612;28;20089;-28
2023/06/16 06:16:49;;;;;;;4.95;3.40;;;;;;;;;;5096717;28;20089;-31
2023/06/16 06:19:15;;;;;;;3.38;3.13;;;;;;;;;;5096671;28;20097;-30
2023/06/16 06:21:42;;;;;;;7.25;3.58;;;;;;;;;;5096384;28;20020;-32
2023/06/16 06:24:08;;;;;;;6.63;3.75;;;;;;;;;;5096173;28;20047;-30
2023/06/16 06:26:38;;;;;;;4.82;3.47;;;;;;;;;;5096304;28;20032;-30
2023/06/16 06:29:04;;;;;;;8.82;3.50;;;;;;;;;;5096201;28;20031;-29
2023/06/16 06:31:30;;;;;;;10.02;3.63;;;;;;;;;;5096161;28;20032;-29
2023/06/16 06:33:57;;;;;;;3.40;3.10;;;;;;;;;;5096022;28;20027;-27
2023/06/16 06:36:27;;;;;;;3.17;3.00;;;;;;;;;;5096096;28;20024;-28
2023/06/16 06:38:53;;;;;;;4.63;2.87;;;;;;;;;;5096604;28;20016;-26
2023/06/16 06:41:20;;;;;;;6.35;3.38;;;;;;;;;;5095921;28;20323;-28
2023/06/16 06:43:46;;;;;;;8.80;3.08;;;;;;;;;;5077937;28;20031;-31
2023/06/16 06:46:12;;;;;;;5.47;2.95;;;;;;;;;;5095864;28;20024;-33
2023/06/16 06:48:38;;;;;;;3.50;3.20;;;;;;;;;;5096135;28;20091;-30
2023/06/16 06:51:05;;;;;;;3.63;3.42;;;;;;;;;;5095816;28;20454;-28
2023/06/16 06:53:32;;;;;;;4.00;3.70;;;;;;;;;;5095703;28;20058;-27
2023/06/16 06:55:58;;;;;;;3.58;3.10;;;;;;;;;;5095645;28;20028;-31
2023/06/16 06:58:25;;;;;;;4.03;3.17;;;;;;;;;;5095901;28;20039;-28
2023/06/16 07:00:51;;;;;;;6.43;3.33;;;;;;;;;;5095592;28;20443;-30
2023/06/16 07:03:17;;;;;;;4.18;3.83;;;;;;;;;;5095181;28;20040;-29
2023/06/16 07:05:43;;;;;;;9.07;3.63;;;;;;;;;;5095760;28;20384;-31
2023/06/16 07:08:09;;;;;;;5.68;3.47;;;;;;;;;;5095488;28;20103;-30
2023/06/16 07:10:36;;;;;;;3.80;3.45;;;;;;;;;;5095754;28;20049;-29
2023/06/16 07:13:02;;;;;;;9.93;3.33;;;;;;;;;;5095338;28;20028;-32
2023/06/16 07:15:29;;;;;;;8.50;3.90;;;;;;;;;;5095340;28;20111;-31
2023/06/16 07:17:55;;;;;;;3.30;3.00;;;;;;;;;;5094496;28;20479;-29
2023/06/16 07:20:21;;;;;;;3.42;2.60;;;;;;;;;;5095357;28;20028;-29
2023/06/16 07:22:47;;;;;;;6.93;3.55;;;;;;;;;;5094941;28;20453;-29
2023/06/16 07:25:15;;;;;;;3.38;3.13;;;;;;;;;;5095331;28;20355;-29
2023/06/16 07:27:43;;;;;;;5.90;3.10;;;;;;;;;;5095030;28;20020;-29
2023/06/16 07:30:09;;;;;;;3.40;3.10;;;;;;;;;;5095272;28;20020;-29
2023/06/16 07:32:36;;;;;;;4.40;2.92;;;;;;;;;;5094865;28;20035;-28
2023/06/16 07:35:03;;;;;;;6.13;3.10;;;;;;;;;;5095623;28;20021;-28
2023/06/16 07:37:29;;;;;;;3.33;2.50;;;;;;;;;;5094992;28;20028;-30
2023/06/16 07:39:55;;;;;;;4.45;3.10;;;;;;;;;;5094867;28;20097;-30
2023/06/16 07:42:21;;;;;;;8.70;3.20;;;;;;;;;;5094745;28;20024;-28
2023/06/16 07:44:47;;;;;;;3.20;2.65;;;;;;;;;;5094940;28;20085;-33
2023/06/16 07:47:13;;;;;;;5.82;3.90;;;;;;;;;;5094846;28;20031;-29
2023/06/16 07:49:39;;;;;;;5.22;3.20;;;;;;;;;;5094837;28;20031;-29
2023/06/16 07:52:06;;;;;;;4.53;3.40;;;;;;;;;;5094870;28;20063;-29
2023/06/16 07:54:32;;;;;;;4.25;3.13;;;;;;;;;;5094728;28;20024;-32
2023/06/16 07:56:58;;;;;;;5.45;3.17;;;;;;;;;;5094922;28;20023;-31
2023/06/16 07:59:26;;;;;;;4.55;4.13;;;;;;;;;;5095264;28;20028;-28
2023/06/16 08:01:52;;;;;;;5.68;3.08;;;;;;;;;;5094608;28;20164;-32
2023/06/16 08:04:18;;;;;;;3.42;3.20;;;;;;;;;;5094422;28;20040;-28
2023/06/16 08:06:45;;;;;;;5.97;2.80;;;;;;;;;;5094623;28;20024;-30
2023/06/16 08:09:11;;;;;;;5.20;3.40;;;;;;;;;;5094900;28;20091;-30
2023/06/16 08:11:37;;;;;;;6.78;3.58;;;;;;;;;;5076798;28;20494;-26
2023/06/16 08:14:03;;;;;;;8.77;3.53;;;;;;;;;;5094464;28;20036;-30
2023/06/16 08:16:29;;;;;;;3.88;3.33;;;;;;;;;;5094497;28;20089;-32
2023/06/16 08:18:57;;;;;;;5.28;3.45;;;;;;;;;;5094466;28;20028;-29
2023/06/16 08:21:23;;;;;;;9.40;4.32;;;;;;;;;;5094430;28;20032;-29
2023/06/16 08:23:52;;;;;;;5.32;3.40;;;;;;;;;;5094279;28;20032;-32
2023/06/16 08:26:18;;;;;;;4.03;3.72;;;;;;;;;;5094351;28;20031;-30
2023/06/16 08:28:44;;;;;;;5.72;3.40;;;;;;;;;;5097036;28;20042;-28
2023/06/16 08:31:11;;;;;;;5.88;3.55;;;;;;;;;;5080619;28;20123;-32
2023/06/16 08:33:37;;;;;;;3.72;3.42;;;;;;;;;;5080667;28;20342;-31
2023/06/16 08:36:04;;;;;;;6.90;3.72;;;;;;;;;;5098349;28;20035;-32
2023/06/16 08:38:31;;;;;;;5.80;3.47;;;;;;;;;;5080508;28;20036;-31
2023/06/16 08:40:57;;;;;;;4.13;3.72;;;;;;;;;;5098312;28;20023;-27
2023/06/16 08:43:24;;;;;;;7.65;4.88;;;;;;;;;;5098186;28;20323;-32
2023/06/16 08:45:51;;;;;;;6.40;3.97;;;;;;;;;;5098539;28;20024;-30
2023/06/16 08:48:17;;;;;;;5.68;4.13;;;;;;;;;;5098238;28;20017;-30
2023/06/16 08:50:44;;;;;;;7.78;3.70;;;;;;;;;;5098167;28;20077;-30
2023/06/16 08:53:12;;;;;;;5.10;3.58;;;;;;;;;;5098304;28;20036;-32
2023/06/16 08:55:40;;;;;;;4.28;3.88;;;;;;;;;;5098098;28;20404;-31
2023/06/16 08:58:11;;;;;;;4.53;3.60;;;;;;;;;;5098008;28;20047;-30
2023/06/16 09:00:39;;;;;;;7.35;3.72;;;;;;;;;;5097964;28;20056;-31
2023/06/16 09:03:09;;;;;;;4.97;3.90;;;;;;;;;;5097799;28;20030;-29
2023/06/16 09:05:36;;;;;;;6.25;3.03;;;;;;;;;;5097815;28;20097;-30
2023/06/16 09:08:05;;;;;;;9.82;3.35;;;;;;;;;;5097831;28;20070;-31
2023/06/16 09:10:31;;;;;;;8.60;3.83;;;;;;;;;;5097776;28;20347;-29
2023/06/16 09:13:03;;;;;;;7.75;3.88;;;;;;;;;;5097970;28;20024;-29
2023/06/16 09:15:29;;;;;;;7.18;3.40;;;;;;;;;;5098376;28;20035;-28
2023/06/16 09:17:59;;;;;;;8.05;2.72;;;;;;;;;;5098197;28;20028;-27
2023/06/16 09:20:25;;;;;;;7.22;3.60;;;;;;;;;;5097878;28;20480;-31
2023/06/16 09:23:02;;;;;;;4.65;3.33;;;;;;;;;;5097566;28;20108;-29
2023/06/16 09:25:32;;;;;;;7.43;3.60;;;;;;;;;;5097606;28;20020;-31
2023/06/16 09:27:59;;;;;;;9.98;3.60;;;;;;;;;;5097342;28;20042;-29
2023/06/16 09:30:36;;;;;;;8.88;4.07;;;;;;;;;;5097139;28;20028;-28
2023/06/16 09:33:02;;;;;;;6.00;4.45;;;;;;;;;;5097267;28;20020;-28
2023/06/16 09:35:29;;;;;;;6.78;3.80;;;;;;;;;;5097244;28;20095;-29
2023/06/16 09:37:56;;;;;;;6.70;4.70;;;;;;;;;;5097073;28;20028;-28
2023/06/16 09:40:26;;;;;;;5.20;3.50;;;;;;;;;;5096634;28;20103;-28
2023/06/16 09:42:52;;;;;;;7.53;3.45;;;;;;;;;;5096993;28;20089;-29
2023/06/16 09:45:22;;;;;;;5.30;3.72;;;;;;;;;;5079442;28;20413;-29
2023/06/16 09:47:48;;;;;;;3.70;3.40;;;;;;;;;;5096978;28;20040;-30
2023/06/16 09:50:16;;;;;;;9.05;3.28;;;;;;;;;;5097028;28;20028;-27
2023/06/16 09:52:45;;;;;;;7.45;3.58;;;;;;;;;;5096929;28;20028;-31
2023/06/16 09:55:12;;;;;;;8.02;4.00;;;;;;;;;;5096747;28;20020;-33
2023/06/16 09:57:39;;;;;;;13.07;4.25;;;;;;;;;;5078935;28;20054;-35
2023/06/16 10:00:13;;;;;;;9.13;4.35;;;;;;;;;;5096994;28;20097;-31
2023/06/16 10:02:40;;;;;;;4.43;4.05;;;;;;;;;;5096834;28;20039;-27
2023/06/16 10:05:14;;;;;;;5.45;3.42;;;;;;;;;;5096547;28;20474;-32
2023/06/16 10:07:43;;;;;;;6.85;4.07;;;;;;;;;;5096819;28;20381;-32
2023/06/16 10:10:11;;;;;;;8.73;4.45;;;;;;;;;;5096414;28;20020;-30
2023/06/16 10:12:40;;;;;;;8.52;3.92;;;;;;;;;;5096763;28;20040;-31
2023/06/16 10:15:08;;;;;;;7.03;3.80;;;;;;;;;;5078578;28;20021;-33
2023/06/16 10:17:36;;;;;;;4.30;3.90;;;;;;;;;;5096549;28;20028;-30
2023/06/16 10:20:05;;;;;;;7.45;4.22;;;;;;;;;;5096139;28;20012;-27
2023/06/16 10:22:31;;;;;;;3.78;3.47;;;;;;;;;;5096442;28;20050;-33
2023/06/16 10:25:00;;;;;;;4.85;4.43;;;;;;;;;;5096006;28;20016;-32
2023/06/16 10:27:27;;;;;;;5.03;4.03;;;;;;;;;;5096479;28;20012;-30
2023/06/16 10:29:54;;;;;;;5.75;3.80;;;;;;;;;;5078067;28;20373;-30
2023/06/16 10:32:20;;;;;;;5.03;3.50;;;;;;;;;;5096207;28;20020;-31
2023/06/16 10:34:49;;;;;;;11.55;4.22;;;;;;;;;;5096268;28;20024;-32
2023/06/16 10:37:22;;;;;;;4.43;4.00;;;;;;;;;;5095836;28;20020;-30
2023/06/16 10:39:48;;;;;;;3.67;3.38;;;;;;;;;;5096115;28;20030;-32
2023/06/16 10:42:14;;;;;;;9.15;4.20;;;;;;;;;;5096703;28;20027;-34
2023/06/16 10:44:42;;;;;;;15.15;6.10;;;;;;;;;;5095982;28;20028;-32
2023/06/16 10:47:11;;;;;;;5.82;3.78;;;;;;;;;;5095665;28;20423;-29
2023/06/16 10:50:01;;;;;;;4.22;3.78;;;;;;;;;;5095847;28;20035;-29
2023/06/16 10:52:33;;;;;;;9.13;3.97;;;;;;;;;;5083550;28;20107;-29
2023/06/16 10:55:16;;;;;;;8.77;3.80;;;;;;;;;;5095606;28;20020;-30
2023/06/16 10:57:43;;;;;;;7.03;4.38;;;;;;;;;;5078709;28;20553;-31
2023/06/16 11:00:14;;;;;;;4.55;4.00;;;;;;;;;;5095664;28;20111;-30
2023/06/16 11:02:50;;;;;;;5.80;3.58;;;;;;;;;;5095318;28;20038;-31
2023/06/16 11:05:18;;;;;;;6.53;4.10;;;;;;;;;;5095378;28;20101;-31
2023/06/16 11:08:05;;;;;;;4.85;3.92;;;;;;;;;;5095392;28;20020;-28
2023/06/16 11:10:47;;;;;;;3.92;3.15;;;;;;;;;;5095874;28;20351;-30
2023/06/16 11:13:14;;;;;;;3.60;3.30;;;;;;;;;;5095407;28;20031;-31
2023/06/16 11:15:42;;;;;;;5.45;4.13;;;;;;;;;;5095355;28;20097;-31
2023/06/16 11:18:08;;;;;;;6.10;4.35;;;;;;;;;;5095147;28;20028;-32
2023/06/16 11:20:36;;;;;;;5.60;3.95;;;;;;;;;;5095188;28;20028;-32
2023/06/16 11:23:05;;;;;;;5.75;4.13;;;;;;;;;;5095182;28;20336;-32
2023/06/16 11:25:32;;;;;;;5.00;4.18;;;;;;;;;;5095056;28;20021;-30
2023/06/16 11:27:58;;;;;;;6.72;3.58;;;;;;;;;;5094957;28;20016;-30
2023/06/16 11:30:25;;;;;;;3.88;3.58;;;;;;;;;;5095243;28;20024;-27
2023/06/16 11:32:52;;;;;;;6.28;4.13;;;;;;;;;;5095141;28;20039;-31
2023/06/16 11:35:18;;;;;;;6.40;4.18;;;;;;;;;;5094842;28;20081;-28
2023/06/16 11:37:48;;;;;;;6.82;3.80;;;;;;;;;;5095046;28;20028;-29
2023/06/16 11:40:25;;;;;;;6.07;4.78;;;;;;;;;;5094993;28;20144;-30
2023/06/16 11:43:01;;;;;;;4.35;4.00;;;;;;;;;;5077580;28;20418;-32
2023/06/16 11:45:28;;;;;;;5.20;4.70;;;;;;;;;;5076896;28;20115;-31
2023/06/16 11:47:55;;;;;;;14.13;4.50;;;;;;;;;;5094916;28;20091;-32
2023/06/16 11:50:22;;;;;;;5.38;4.40;;;;;;;;;;5094591;28;20048;-32
2023/06/16 11:52:49;;;;;;;12.27;4.53;;;;;;;;;;5094473;28;20028;-30
2023/06/16 11:55:16;;;;;;;8.98;4.40;;;;;;;;;;5076677;28;20489;-30
2023/06/16 11:57:42;;;;;;;8.77;5.13;;;;;;;;;;5094739;28;20073;-29
2023/06/16 12:00:09;;;;;;;11.07;3.78;;;;;;;;;;5094450;28;20024;-27
2023/06/16 12:02:37;;;;;;;7.03;4.32;;;;;;;;;;5093787;28;20103;-29
2023/06/16 12:05:05;;;;;;;7.00;4.55;;;;;;;;;;5095147;28;20332;-30
2023/06/16 12:07:33;;;;;;;13.65;4.40;;;;;;;;;;5094451;28;20046;-28
2023/06/16 12:10:02;;;;;;;9.27;3.88;;;;;;;;;;5094339;28;20093;-32
2023/06/16 12:12:29;;;;;;;7.40;4.57;;;;;;;;;;5094333;28;20407;-30
2023/06/16 12:14:57;;;;;;;12.25;4.65;;;;;;;;;;5094318;28;20023;-31
2023/06/16 12:17:24;;;;;;;6.68;3.75;;;;;;;;;;5094368;28;20020;-30
2023/06/16 12:19:51;;;;;;;7.65;4.32;;;;;;;;;;5094317;28;20025;-29
2023/06/16 12:22:17;;;;;;;12.35;4.28;;;;;;;;;;5094554;28;20051;-32
2023/06/16 12:24:43;;;;;;;16.58;4.57;;;;;;;;;;5094164;28;20085;-34
2023/06/16 12:27:10;;;;;;;13.23;4.57;;;;;;;;;;5094415;28;20072;-30
2023/06/16 12:29:36;;;;;;;7.45;4.03;;;;;;;;;;5094764;28;20024;-30
2023/06/16 12:32:05;;;;;;;4.90;4.22;;;;;;;;;;5094498;28;20145;-29
2023/06/16 12:34:33;;;;;;;9.82;5.18;;;;;;;;;;5094280;28;20081;-31
2023/06/16 12:37:12;;;;;;;8.30;4.60;;;;;;;;;;5094379;28;20036;-29
2023/06/16 12:39:40;;;;;;;9.30;3.83;;;;;;;;;;5094574;28;20126;-28
2023/06/16 12:42:08;;;;;;;4.00;3.70;;;;;;;;;;5094289;28;20020;-32
2023/06/16 12:45:02;;;;;;;11.32;4.68;;;;;;;;;;5094600;28;20103;-35
2023/06/16 12:47:29;;;;;;;6.95;4.65;;;;;;;;;;5090965;28;20027;-27
2023/06/16 12:49:57;;;;;;;27.63;5.55;;;;;;;;;;5093979;28;20150;-29
2023/06/16 12:52:24;;;;;;;19.48;4.90;;;;;;;;;;5094019;28;20016;-30
2023/06/16 12:54:51;;;;;;;4.32;3.92;;;;;;;;;;5094760;28;20028;-32
2023/06/16 12:57:18;;;;;;;9.10;4.75;;;;;;;;;;5094409;28;20358;-29
2023/06/16 12:59:44;;;;;;;6.10;4.10;;;;;;;;;;5094090;28;20089;-27
2023/06/16 13:02:10;;;;;;;5.55;4.18;;;;;;;;;;5094018;28;20028;-30
2023/06/16 13:04:37;;;;;;;8.82;3.85;;;;;;;;;;5093799;28;20040;-31
2023/06/16 13:07:03;;;;;;;6.13;4.78;;;;;;;;;;5076157;28;20392;-31
2023/06/16 13:09:29;;;;;;;8.27;3.88;;;;;;;;;;5093914;28;20104;-29
2023/06/16 13:11:57;;;;;;;12.55;3.97;;;;;;;;;;5093999;28;20027;-31
2023/06/16 13:14:23;;;;;;;12.07;4.72;;;;;;;;;;5093953;28;20446;-30
2023/06/16 13:16:50;;;;;;;8.65;4.10;;;;;;;;;;5097716;28;20035;-29
2023/06/16 13:19:16;;;;;;;4.97;4.00;;;;;;;;;;5097584;28;20332;-27
2023/06/16 13:21:42;;;;;;;6.60;4.10;;;;;;;;;;5097444;28;20122;-27
2023/06/16 13:24:08;;;;;;;4.53;4.00;;;;;;;;;;5097457;28;20027;-29
2023/06/16 13:26:34;;;;;;;6.22;4.45;;;;;;;;;;5097413;28;20035;-31
2023/06/16 13:29:00;;;;;;;6.88;3.83;;;;;;;;;;5097400;28;20027;-31
2023/06/16 13:31:27;;;;;;;4.75;4.20;;;;;;;;;;5079388;28;20020;-31
2023/06/16 13:33:53;;;;;;;5.22;4.20;;;;;;;;;;5097187;28;20024;-30
2023/06/16 13:36:21;;;;;;;12.18;5.22;;;;;;;;;;5097779;28;20028;-29
2023/06/16 13:38:48;;;;;;;5.43;4.47;;;;;;;;;;5097456;28;20449;-31
2023/06/16 13:41:14;;;;;;;5.88;4.55;;;;;;;;;;5097120;28;20451;-29
2023/06/16 13:43:44;;;;;;;10.93;5.70;;;;;;;;;;5097214;28;20024;-30
2023/06/16 13:46:11;;;;;;;7.75;4.53;;;;;;;;;;5097453;28;20043;-28
2023/06/16 13:48:37;;;;;;;5.15;4.50;;;;;;;;;;5097104;28;20020;-26
2023/06/16 13:51:03;;;;;;;14.07;5.13;;;;;;;;;;5079267;28;20028;-30
2023/06/16 13:53:30;;;;;;;9.70;4.70;;;;;;;;;;5097334;28;20382;-30
2023/06/16 13:55:56;;;;;;;5.28;4.43;;;;;;;;;;5096788;28;20024;-32
2023/06/16 13:58:22;;;;;;;6.30;4.90;;;;;;;;;;5097422;28;20342;-31
2023/06/16 14:00:48;;;;;;;7.10;4.28;;;;;;;;;;5097112;28;20024;-29
2023/06/16 14:03:15;;;;;;;14.95;4.72;;;;;;;;;;5097006;28;20035;-31
2023/06/16 14:05:41;;;;;;;14.68;4.40;;;;;;;;;;5078853;28;20085;-29
2023/06/16 14:08:08;;;;;;;13.18;5.25;;;;;;;;;;5096674;28;20024;-29
2023/06/16 14:10:34;;;;;;;8.88;4.65;;;;;;;;;;5096629;28;20055;-28
2023/06/16 14:13:00;;;;;;;10.23;4.50;;;;;;;;;;5096744;28;20430;-30
2023/06/16 14:15:31;;;;;;;7.93;4.70;;;;;;;;;;5096596;28;20032;-33
2023/06/16 14:18:00;;;;;;;14.88;4.78;;;;;;;;;;5078732;28;20477;-34
2023/06/16 14:20:27;;;;;;;12.63;5.00;;;;;;;;;;5096811;28;20107;-29
2023/06/16 14:22:53;;;;;;;14.88;5.05;;;;;;;;;;5096267;28;20020;-28
2023/06/16 14:25:19;;;;;;;14.80;4.85;;;;;;;;;;5078107;28;20039;-31
2023/06/16 14:27:45;;;;;;;12.23;4.90;;;;;;;;;;5096200;28;20028;-29
2023/06/16 14:30:12;;;;;;;11.07;5.32;;;;;;;;;;5096245;28;20127;-31
2023/06/16 14:32:39;;;;;;;17.95;5.15;;;;;;;;;;5096050;28;20039;-31
2023/06/16 14:35:05;;;;;;;16.23;5.47;;;;;;;;;;5095922;28;20335;-30
2023/06/16 14:37:32;;;;;;;7.63;4.90;;;;;;;;;;5095870;28;20024;-31
2023/06/16 14:39:58;;;;;;;10.18;4.78;;;;;;;;;;5096574;28;20038;-31
2023/06/16 14:42:26;;;;;;;6.80;4.68;;;;;;;;;;5096258;28;20024;-31